Time;durP1;ratioP1;P1;durP2;ratioP2;P2;SDS_P1;SDS_P2;PMS_P1;PMS_P2;Temp;Humidity;BMP_temperature;BMP_pressure;BME280_temperature;BME280_humidity;BME280_pressure;Samples;Min_cycle;Max_cycle;Signal;HPM_P1;HPM_P2
2022/02/03 04:34:00;;;;;;;15.93;13.13;;;;;;;11.54;63.31;99323.94;6922019;28;20235;-86
2022/02/03 04:37:55;;;;;;;15.60;12.43;;;;;;;11.65;63.11;99340.47;6918968;28;20217;-88
2022/02/03 04:41:53;;;;;;;17.23;13.40;;;;;;;11.49;63.02;99338.03;6919235;28;20224;-89
2022/02/03 04:45:51;;;;;;;17.00;13.27;;;;;;;11.59;63.49;99318.81;6918053;28;20672;-88
2022/02/03 04:57:23;;;;;;;15.90;13.10;;;;;;;10.66;66.54;99304.78;6917192;28;20192;-88
2022/02/03 05:01:24;;;;;;;15.37;12.27;;;;;;;11.50;64.79;99303.75;6919553;28;20232;-88
2022/02/03 05:05:07;;;;;;;14.83;11.63;;;;;;;11.43;63.49;99300.19;6914298;28;20196;-88
2022/02/03 05:08:46;;;;;;;15.13;11.63;;;;;;;11.40;63.03;99290.63;6918892;28;20636;-88
2022/02/03 05:12:27;;;;;;;14.70;11.87;;;;;;;11.59;63.09;99279.16;6917767;28;20224;-88
2022/02/03 05:16:19;;;;;;;15.00;13.23;;;;;;;11.25;63.45;99275.56;6917471;28;20212;-88
2022/02/03 05:20:13;;;;;;;17.03;13.20;;;;;;;11.00;65.06;99266.25;6918841;28;20208;-89
2022/02/03 05:42:52;;;;;;;15.80;12.03;;;;;;;11.67;62.51;99267.31;6926548;28;20223;-87
2022/02/03 05:46:42;;;;;;;14.67;11.53;;;;;;;11.55;62.41;99258.09;6921999;28;20207;-88
2022/02/03 05:50:33;;;;;;;14.83;11.37;;;;;;;11.35;62.87;99249.06;6922340;28;20699;-87
2022/02/03 06:01:30;;;;;;;19.23;14.63;;;;;;;11.33;63.20;99259.22;6924611;28;20224;-85
2022/02/03 06:05:02;;;;;;;15.43;13.03;;;;;;;11.33;62.24;99233.06;6924221;28;20201;-86
2022/02/03 06:08:34;;;;;;;17.93;12.47;;;;;;;11.23;62.78;99218.25;6925865;28;20188;-85
2022/02/03 06:16:02;;;;;;;16.80;12.17;;;;;;;10.45;63.57;99202.34;6874862;28;20221;-85
2022/02/03 06:23:07;;;;;;;16.77;12.50;;;;;;;10.39;64.24;99238.16;6928070;28;20216;-86
2022/02/03 06:30:12;;;;;;;16.23;11.63;;;;;;;9.97;67.46;99248.03;6923522;28;20362;-85
2022/02/03 06:33:34;;;;;;;14.93;11.20;;;;;;;10.89;65.16;99243.38;6923472;28;20205;-87
2022/02/03 06:36:56;;;;;;;15.27;12.10;;;;;;;10.98;64.76;99230.56;6924864;28;20223;-88
2022/02/03 06:40:18;;;;;;;14.57;11.27;;;;;;;10.72;64.77;99214.19;6926020;28;20230;-87
2022/02/03 06:43:42;;;;;;;12.47;10.87;;;;;;;11.27;63.85;99233.03;6926956;28;20204;-87
2022/02/03 06:47:11;;;;;;;14.40;10.93;;;;;;;11.18;63.09;99224.25;6927832;28;20210;-87
2022/02/03 06:51:05;;;;;;;14.00;11.17;;;;;;;11.28;63.37;99242.78;6927973;28;20223;-91
2022/02/03 06:54:35;;;;;;;13.80;11.03;;;;;;;11.05;63.67;99248.44;6925973;28;20733;-86
2022/02/03 07:01:40;;;;;;;12.33;9.13;;;;;;;10.77;66.89;99249.50;6938752;28;20228;-91
2022/02/03 07:05:02;;;;;;;12.50;10.17;;;;;;;11.61;65.11;99246.50;6931108;28;20211;-92
2022/02/03 07:12:24;;;;;;;11.10;9.23;;;;;;;10.84;62.20;99099.31;6945119;28;20269;-94
2022/02/03 07:15:59;;;;;;;10.33;9.27;;;;;;;10.43;63.09;99163.97;6943495;28;20224;-93
2022/02/03 07:23:11;;;;;;;13.67;10.60;;;;;;;11.25;63.22;99238.63;6938963;28;20239;-93
2022/02/03 07:27:12;;;;;;;17.13;12.40;;;;;;;10.58;65.93;99252.88;6928262;28;20208;-93
2022/02/03 07:30:42;;;;;;;16.17;13.30;;;;;;;10.84;66.02;99234.19;6892144;28;20244;-93
2022/02/03 07:38:19;;;;;;;14.63;10.77;;;;;;;11.35;65.38;99192.38;6902887;28;20716;-93
2022/02/03 07:46:20;;;;;;;12.67;10.47;;;;;;;12.10;62.99;99203.88;6854717;28;20556;-93
2022/02/03 07:53:47;;;;;;;10.40;9.07;;;;;;;11.28;63.88;99143.75;6923043;28;20218;-93
2022/02/03 07:57:48;;;;;;;10.07;8.37;;;;;;;11.72;63.57;99149.53;6928786;28;20719;-90
2022/02/03 08:01:31;;;;;;;9.33;6.90;;;;;;;11.39;63.31;99085.66;6921352;28;20321;-90
2022/02/03 08:05:03;;;;;;;7.83;7.03;;;;;;;12.12;61.57;99118.00;6929590;28;20196;-93
2022/02/03 08:12:22;;;;;;;17.40;14.40;;;;;;;12.24;62.58;99170.41;6928330;28;20257;-89
2022/02/03 08:16:13;;;;;;;16.20;13.53;;;;;;;12.08;62.17;99089.72;6924261;28;20231;-93
2022/02/03 08:19:55;;;;;;;12.70;10.47;;;;;;;11.81;62.17;99086.16;6920151;28;20207;-93
2022/02/03 08:31:39;;;;;;;7.73;7.00;;;;;;;11.72;61.94;99005.53;6897248;28;20227;-93
2022/02/03 08:35:33;;;;;;;6.83;6.23;;;;;;;12.69;60.87;99119.00;6910000;28;20236;-90
2022/02/03 08:39:06;;;;;;;6.37;5.67;;;;;;;12.77;60.78;99129.63;6901921;28;20208;-91
2022/02/03 08:42:33;;;;;;;6.70;5.97;;;;;;;13.18;60.18;99167.22;6900567;28;20230;-90
2022/02/03 08:45:56;;;;;;;7.80;6.50;;;;;;;12.85;59.64;99069.00;6896855;28;20208;-89
2022/02/03 08:49:25;;;;;;;6.57;5.93;;;;;;;12.69;59.10;99045.97;6886655;28;20208;-92
2022/02/03 08:52:56;;;;;;;6.60;6.00;;;;;;;12.35;60.42;99065.19;6885829;28;20743;-91
2022/02/03 08:56:30;;;;;;;6.37;5.77;;;;;;;12.89;59.84;99105.44;6888544;28;20232;-92
2022/02/03 09:00:17;;;;;;;6.53;5.93;;;;;;;12.97;60.06;99138.56;6896284;28;20291;-92
2022/02/03 09:34:45;;;;;;;5.40;4.90;;;;;;;14.08;57.90;99119.88;6892882;28;20667;-90
2022/02/03 09:53:21;;;;;;;6.27;4.77;;;;;;;14.50;55.49;99054.03;6893362;28;20228;-88
2022/02/03 09:57:12;;;;;;;4.23;3.83;;;;;;;14.31;54.95;99003.50;6892812;28;20224;-88
2022/02/03 10:00:48;;;;;;;4.17;3.73;;;;;;;15.03;54.68;99070.56;6875235;28;20582;-88
2022/02/03 10:04:13;;;;;;;4.00;3.50;;;;;;;15.15;53.76;99063.34;6893494;28;20200;-87
2022/02/03 10:07:38;;;;;;;4.07;3.67;;;;;;;15.07;53.13;99050.88;6893797;28;20233;-86
2022/02/03 10:11:15;;;;;;;3.67;3.37;;;;;;;15.12;52.68;99042.03;6892557;28;20232;-88
2022/02/03 10:14:39;;;;;;;3.83;3.50;;;;;;;15.26;52.93;99054.38;6891802;28;20227;-87
2022/02/03 10:18:02;;;;;;;4.03;3.63;;;;;;;15.16;54.28;99065.00;6896064;28;20209;-88
2022/02/03 10:21:23;;;;;;;5.27;3.40;;;;;;;14.98;53.85;99063.09;6895425;28;20252;-88
2022/02/03 10:24:48;;;;;;;4.73;4.00;;;;;;;15.28;54.22;99065.88;6893285;28;20205;-87
2022/02/03 10:28:13;;;;;;;3.10;2.90;;;;;;;14.97;53.93;99058.72;6885365;28;20248;-84
2022/02/03 10:31:36;;;;;;;3.20;2.80;;;;;;;15.24;53.24;99043.78;6880702;28;20719;-86
2022/02/03 10:34:59;;;;;;;4.07;2.80;;;;;;;15.10;52.69;98998.81;6876997;28;20230;-84
2022/02/03 10:42:14;;;;;;;2.90;2.70;;;;;;;15.63;51.41;99009.81;6892141;28;20221;-85
2022/02/03 10:45:55;;;;;;;2.57;2.37;;;;;;;15.70;51.42;99019.50;6916591;28;20197;-86
2022/02/03 10:49:41;;;;;;;2.97;2.70;;;;;;;15.41;52.14;98987.78;6919537;28;20559;-87
2022/02/03 10:53:26;;;;;;;3.00;2.70;;;;;;;15.65;51.74;98983.22;6919357;28;20238;-87
2022/02/03 11:01:13;;;;;;;2.53;2.33;;;;;;;15.55;51.16;98953.03;6846604;28;20273;-88
2022/02/03 11:04:59;;;;;;;2.77;2.50;;;;;;;15.51;51.29;98941.00;6913704;28;20211;-88
2022/02/03 11:08:28;;;;;;;3.53;2.83;;;;;;;14.48;52.73;98871.66;6889651;28;20264;-89
2022/02/03 11:11:55;;;;;;;3.00;2.80;;;;;;;15.26;51.96;98932.16;6894853;28;20222;-89
2022/02/03 11:15:17;;;;;;;2.77;2.57;;;;;;;15.50;50.85;98915.72;6890440;28;20319;-90
2022/02/03 11:18:46;;;;;;;2.57;2.37;;;;;;;15.40;50.46;98893.72;6870630;28;20216;-89
2022/02/03 11:22:11;;;;;;;3.40;3.10;;;;;;;15.62;50.39;98889.38;6891693;28;20828;-91
2022/02/03 11:25:52;;;;;;;5.80;3.57;;;;;;;15.83;49.24;98910.56;6889912;28;20205;-90
2022/02/03 11:30:05;;;;;;;3.53;3.20;;;;;;;15.11;50.63;98883.69;6880630;28;20245;-89
2022/02/03 11:33:51;;;;;;;2.97;2.57;;;;;;;15.07;50.99;98879.81;6879769;28;20266;-90
2022/02/03 11:41:31;;;;;;;3.47;2.50;;;;;;;15.53;50.16;98860.06;6866078;28;20229;-89
2022/02/03 11:52:58;;;;;;;2.63;2.43;;;;;;;15.29;50.80;98840.16;6896938;28;20244;-89
2022/02/03 12:08:01;;;;;;;3.30;3.00;;;;;;;14.37;50.23;98655.41;7046246;28;20231;-79
2022/02/03 12:19:01;;;;;;;2.93;2.63;;;;;;;15.81;48.71;98782.16;7070729;28;20217;-79
2022/02/03 12:22:37;;;;;;;2.80;2.60;;;;;;;15.26;50.44;98767.28;7060782;28;20207;-78
2022/02/03 12:26:05;;;;;;;3.03;2.73;;;;;;;15.80;49.01;98783.25;7059767;28;20353;-79
2022/02/03 12:29:36;;;;;;;3.20;2.90;;;;;;;15.49;50.00;98729.28;7077578;28;20568;-78
2022/02/03 12:36:57;;;;;;;2.90;2.70;;;;;;;15.64;48.09;98712.47;7088451;27;20190;-78
2022/02/03 12:37:13;;;;;;;2.47;2.27;;;;;;;16.09;48.38;98789.56;7083323;28;20639;-79
2022/02/03 12:40:51;;;;;;;2.17;1.90;;;;;;;15.20;47.35;98653.31;7061939;28;20193;-78
2022/02/03 12:44:19;;;;;;;2.10;2.00;;;;;;;15.12;47.23;98629.25;7059621;28;20243;-78
2022/02/03 12:47:43;;;;;;;1.90;1.80;;;;;;;16.12;47.00;98756.44;7050541;28;20472;-78
2022/02/03 12:51:05;;;;;;;2.13;1.70;;;;;;;14.20;48.36;98640.88;7056916;28;20204;-77
2022/02/03 12:54:32;;;;;;;2.20;2.00;;;;;;;15.87;47.83;98754.03;7035700;28;20214;-77
2022/02/03 12:57:56;;;;;;;3.10;1.73;;;;;;;15.02;47.17;98542.97;7035632;28;20229;-77
2022/02/03 13:01:27;;;;;;;1.63;1.53;;;;;;;15.88;46.69;98701.31;7059129;28;20231;-78
2022/02/03 13:04:50;;;;;;;2.30;1.60;;;;;;;15.82;47.20;98671.53;7059012;28;20565;-81
2022/02/03 13:08:12;;;;;;;1.90;1.80;;;;;;;16.16;47.45;98703.22;7042907;28;20201;-80
2022/02/03 13:11:40;;;;;;;1.70;1.60;;;;;;;16.35;46.94;98715.56;7012426;28;20214;-77
2022/02/03 13:15:04;;;;;;;2.57;1.90;;;;;;;16.22;45.62;98724.00;7012383;28;20665;-82
2022/02/03 13:18:36;;;;;;;2.03;1.93;;;;;;;15.69;46.46;98620.19;7015891;28;20237;-81
2022/02/03 13:22:12;;;;;;;2.20;2.00;;;;;;;15.84;46.33;98609.59;7012974;28;20217;-77
2022/02/03 13:25:45;;;;;;;5.73;2.70;;;;;;;16.38;46.98;98699.59;7017103;28;20202;-79
2022/02/03 13:29:18;;;;;;;2.27;2.07;;;;;;;16.51;46.23;98712.06;7016164;28;20319;-79
2022/02/03 13:32:43;;;;;;;2.30;2.10;;;;;;;16.50;46.31;98707.69;7027718;28;20208;-80
2022/02/03 13:36:09;;;;;;;3.27;2.00;;;;;;;16.54;45.82;98685.19;7022715;28;20195;-80
2022/02/03 13:39:36;;;;;;;2.83;2.10;;;;;;;16.46;46.29;98680.13;7021777;28;20206;-80
2022/02/03 13:43:02;;;;;;;2.40;2.00;;;;;;;15.91;46.49;98599.38;7011779;28;20216;-81
2022/02/03 13:46:30;;;;;;;3.17;2.23;;;;;;;16.22;46.43;98658.72;7011132;28;20237;-81
2022/02/03 13:50:09;;;;;;;2.17;1.97;;;;;;;16.49;46.20;98671.50;7023927;28;20200;-88
2022/02/03 13:53:37;;;;;;;2.50;2.27;;;;;;;15.45;46.34;98520.78;7023230;28;20210;-81
2022/02/03 14:15:44;;;;;;;3.13;2.30;;;;;;;16.45;46.21;98664.06;7014986;28;20203;-79
2022/02/03 14:23:30;;;;;;;2.17;2.07;;;;;;;15.79;46.47;98631.22;7011698;28;20819;-79
2022/02/03 14:27:02;;;;;;;3.03;2.17;;;;;;;16.27;46.25;98640.59;7066511;28;20233;-78
2022/02/03 14:30:24;;;;;;;2.60;2.40;;;;;;;15.82;46.42;98576.38;7065883;27;20291;-78
2022/02/03 14:33:45;;;;;;;2.53;2.10;;;;;;;16.31;46.14;98644.47;7066309;27;20213;-79
2022/02/03 14:37:14;;;;;;;2.30;2.10;;;;;;;15.93;46.49;98629.88;7049180;27;20214;-79
2022/02/03 14:40:50;;;;;;;2.17;1.97;;;;;;;15.57;45.90;98535.97;7011103;28;20213;-78
2022/02/03 14:44:15;;;;;;;3.73;3.30;;;;;;;15.87;45.81;98595.53;7016009;28;20221;-79
2022/02/03 14:47:39;;;;;;;2.30;2.10;;;;;;;15.61;46.77;98575.19;7008725;28;20242;-79
2022/02/03 14:51:04;;;;;;;3.10;2.27;;;;;;;16.24;46.35;98646.53;7009220;28;20652;-78
2022/02/03 14:58:13;;;;;;;3.40;2.10;;;;;;;16.19;46.56;98629.28;6977854;28;20221;-79
2022/02/03 15:01:35;;;;;;;3.63;3.10;;;;;;;15.95;47.48;98608.72;7037891;28;20200;-79
2022/02/03 15:05:04;;;;;;;3.87;2.20;;;;;;;15.09;46.92;98481.22;7036754;28;20215;-79
2022/02/03 15:08:45;;;;;;;2.60;2.40;;;;;;;16.00;46.86;98609.66;7036884;28;20208;-79
2022/02/03 15:12:22;;;;;;;3.10;2.70;;;;;;;15.87;47.79;98633.59;7037452;28;20209;-78
2022/02/03 15:15:46;;;;;;;5.00;3.50;;;;;;;15.75;48.04;98606.44;7037120;28;20206;-79
2022/02/03 15:19:07;;;;;;;6.97;3.30;;;;;;;14.93;48.59;98495.53;7037149;28;20236;-77
2022/02/03 15:22:29;;;;;;;3.03;2.80;;;;;;;15.46;47.68;98561.28;7033705;28;20206;-78
2022/02/03 15:25:51;;;;;;;3.77;3.07;;;;;;;14.22;48.53;98393.91;7007818;28;20213;-84
2022/02/03 15:29:15;;;;;;;3.40;3.10;;;;;;;15.15;48.63;98525.59;7028661;28;20669;-76
2022/02/03 15:32:41;;;;;;;3.10;2.80;;;;;;;15.12;48.05;98509.78;7007806;28;20290;-77
2022/02/03 15:36:05;;;;;;;3.00;2.70;;;;;;;15.89;47.78;98609.69;7008310;28;20208;-76
2022/02/03 15:39:35;;;;;;;2.93;2.63;;;;;;;15.44;48.70;98604.19;7008863;28;20235;-77
2022/02/03 15:43:02;;;;;;;5.87;3.27;;;;;;;15.21;49.21;98557.22;7008194;28;20205;-79
2022/02/03 15:46:26;;;;;;;4.77;3.20;;;;;;;15.51;48.92;98590.47;7008276;28;20249;-78
2022/02/03 15:50:33;;;;;;;7.07;3.03;;;;;;;14.67;48.96;98468.09;7029137;28;20212;-78
2022/02/03 16:01:27;;;;;;;5.00;2.97;;;;;;;14.22;53.21;98598.06;7036246;28;20208;-79
2022/02/03 16:19:36;;;;;;;3.67;3.17;;;;;;;14.25;52.43;98548.81;7008017;28;20230;-79
2022/02/03 16:23:10;;;;;;;7.60;3.30;;;;;;;14.15;52.53;98575.63;7008644;28;20255;-78
2022/02/03 16:26:46;;;;;;;6.53;3.50;;;;;;;13.26;54.10;98474.69;7008580;28;20209;-79
2022/02/03 16:55:46;;;;;;;8.77;6.17;;;;;;;13.47;56.16;98593.34;7021644;28;20291;-78
2022/02/03 16:59:09;;;;;;;7.00;5.30;;;;;;;12.42;56.34;98454.09;7031497;28;20217;-79
2022/02/03 17:02:31;;;;;;;9.07;6.53;;;;;;;12.97;56.74;98591.03;7011979;28;20201;-79
2022/02/03 17:05:53;;;;;;;9.00;6.03;;;;;;;12.44;56.54;98469.03;7026502;28;20201;-78
2022/02/03 17:09:15;;;;;;;8.70;5.93;;;;;;;12.97;56.35;98535.03;7039902;28;20204;-78
2022/02/03 17:12:41;;;;;;;9.17;5.40;;;;;;;13.27;55.96;98581.09;7019473;28;20201;-79
2022/02/03 17:16:05;;;;;;;7.50;4.80;;;;;;;12.43;57.06;98596.34;7011383;28;20190;-78
2022/02/03 17:19:27;;;;;;;10.47;5.50;;;;;;;12.02;59.23;98591.50;7011274;28;20232;-78
2022/02/03 17:22:52;;;;;;;11.90;8.23;;;;;;;12.08;59.57;98592.47;7011365;28;20347;-79
2022/02/03 17:26:19;;;;;;;10.53;7.03;;;;;;;12.77;58.40;98603.91;7027568;28;20552;-77
2022/02/03 17:29:51;;;;;;;12.30;8.30;;;;;;;12.82;57.48;98590.53;7010965;28;20190;-78
2022/02/03 18:10:11;;;;;;;15.10;11.47;;;;;;;11.26;62.43;98559.31;7013207;28;20186;-77
2022/02/03 18:50:39;;;;;;;14.33;11.30;;;;;;;12.32;58.99;98627.63;7015671;28;20253;-77
2022/02/03 18:54:13;;;;;;;11.83;8.33;;;;;;;12.52;57.40;98628.28;7016502;28;20229;-79
2022/02/03 18:57:44;;;;;;;16.83;11.70;;;;;;;11.51;59.55;98620.44;7023457;28;20205;-77
2022/02/03 19:01:23;;;;;;;19.47;14.20;;;;;;;10.81;61.00;98603.50;7012844;28;20228;-77
2022/02/03 19:16:14;;;;;;;20.97;13.00;;;;;;;11.95;58.76;98622.28;6986836;28;20226;-77
2022/02/03 19:27:25;;;;;;;12.47;10.67;;;;;;;11.28;58.90;98582.34;6970740;28;20204;-78
2022/02/03 20:07:26;;;;;;;16.53;10.13;;;;;;;10.69;60.52;98614.09;7024184;28;20227;-79
2022/02/03 20:10:50;;;;;;;19.70;10.53;;;;;;;10.68;60.12;98590.88;7063576;28;20201;-76
2022/02/03 20:14:13;;;;;;;13.70;8.63;;;;;;;10.69;60.49;98615.97;7063380;28;20207;-76
2022/02/03 20:17:35;;;;;;;14.87;10.07;;;;;;;10.16;61.20;98625.13;7055045;28;20197;-75
2022/02/03 20:20:57;;;;;;;17.33;11.67;;;;;;;10.42;60.90;98620.56;7038979;28;20234;-77
2022/02/03 20:24:19;;;;;;;19.77;12.47;;;;;;;10.06;61.64;98595.91;7040163;28;20215;-75
2022/02/03 20:27:40;;;;;;;21.27;13.30;;;;;;;10.40;60.92;98594.84;7038051;28;20216;-76
2022/02/03 20:31:04;;;;;;;11.40;7.73;;;;;;;10.16;59.99;98523.56;7033819;28;20204;-76
2022/02/03 20:34:25;;;;;;;8.30;6.90;;;;;;;9.89;60.44;98527.31;7027281;28;20201;-76
2022/02/03 20:37:47;;;;;;;11.20;10.07;;;;;;;9.46;60.66;98515.25;7030771;28;20566;-76
2022/02/03 20:41:09;;;;;;;11.73;9.00;;;;;;;8.99;61.61;98463.44;7022716;28;20228;-76
2022/02/03 20:44:31;;;;;;;12.83;9.77;;;;;;;10.05;61.08;98567.28;7017716;28;20197;-76
2022/02/03 20:47:55;;;;;;;11.90;10.10;;;;;;;9.68;62.03;98607.44;7033697;28;20217;-76
2022/02/03 20:51:17;;;;;;;13.17;9.80;;;;;;;10.28;60.96;98588.44;7017183;28;20207;-76
2022/02/03 20:54:39;;;;;;;13.87;10.80;;;;;;;10.50;60.86;98588.00;7021631;28;20565;-76
2022/02/03 20:58:01;;;;;;;11.30;9.63;;;;;;;10.65;60.36;98610.16;7015392;28;20243;-76
2022/02/03 21:01:26;;;;;;;13.70;9.10;;;;;;;10.65;60.29;98604.78;7032945;28;20222;-76
2022/02/03 21:04:59;;;;;;;11.20;9.03;;;;;;;10.58;59.79;98586.94;7039369;28;20244;-74
2022/02/03 21:08:29;;;;;;;9.43;8.43;;;;;;;10.21;59.96;98618.06;7021886;28;20225;-77
2022/02/03 21:11:50;;;;;;;9.63;7.90;;;;;;;9.72;60.06;98533.28;7036923;28;20199;-76
2022/02/03 21:15:13;;;;;;;11.40;7.93;;;;;;;10.10;60.97;98599.03;7028789;28;20201;-76
2022/02/03 21:18:39;;;;;;;12.27;9.27;;;;;;;10.23;60.77;98601.72;7023202;28;20205;-77
2022/02/03 21:22:02;;;;;;;8.47;7.57;;;;;;;10.23;59.85;98564.00;7011835;28;20202;-77
2022/02/03 21:25:29;;;;;;;9.03;7.13;;;;;;;8.36;61.28;98399.38;7010694;28;20215;-77
2022/02/03 21:28:51;;;;;;;8.10;6.63;;;;;;;8.92;61.04;98419.59;7010845;28;20286;-77
2022/02/03 21:32:13;;;;;;;9.07;6.77;;;;;;;9.32;60.98;98492.06;7011912;28;20204;-77
2022/02/03 21:35:34;;;;;;;9.90;6.70;;;;;;;9.77;60.20;98507.44;7016172;28;20197;-77
2022/02/03 21:38:57;;;;;;;12.23;7.30;;;;;;;9.85;60.17;98590.69;7038719;28;20222;-76
2022/02/03 21:42:19;;;;;;;10.03;7.07;;;;;;;9.56;59.49;98474.50;7038551;28;20205;-76
2022/02/03 21:45:41;;;;;;;10.33;8.53;;;;;;;9.54;60.03;98543.84;7037436;28;20211;-76
2022/02/03 21:49:03;;;;;;;10.23;8.90;;;;;;;9.86;60.56;98545.75;7029621;28;20694;-76
2022/02/03 21:52:33;;;;;;;9.17;8.17;;;;;;;10.33;59.97;98596.75;7038189;28;20214;-76
2022/02/03 21:55:57;;;;;;;9.50;7.40;;;;;;;9.34;60.15;98464.97;7012623;28;20647;-77
2022/02/03 21:59:18;;;;;;;8.70;7.80;;;;;;;10.17;60.29;98597.16;7012114;28;20225;-76
